Navios Pollux — 3FPO2 — position and weather

sailwx.info

Track history (hours):
 
Tides and Currents Weather Stations Pressure Air Temp Water Temp Dewpoint Dewpoint Depression Visibility Wind Speed Wind Dir Waves Ship Positions

Navios Pollux

Last reported at 2018-Feb-20 19:29 UTC. Time now 2018-Feb-20 19:49 UTC.
Position N 38°59' W 010°20'.

Length 292 m; draft 17.6 m.

Type: Cargo ship. MMSI: 370290000.

Date/timePositionNaut miles runAvg speedWind from/ knotsBaromVisibWave heightAir tempDewpointWater temp
2018-Feb-20 19:29N 38°59' W 010°20'5 9.8
2018-Feb-20 19:00N 39°04' W 010°20'5 9.8
2018-Feb-20 18:30N 39°09' W 010°20'5 9.6
2018-Feb-20 17:59N 39°14' W 010°20'5 9.6
2018-Feb-20 17:30N 39°19' W 010°20'5 9.6
2018-Feb-20 17:00N 39°23' W 010°20'5 9.7
2018-Feb-20 16:30N 39°28' W 010°20'8 9.6
2018-Feb-20 15:39N 39°36' W 010°20'5 9.6
2018-Feb-20 15:09N 39°41' W 010°20'1 9.6
2018-Feb-20 15:00N 39°43' W 010°20'  
2018-Feb-17 10:41N 52°07' W 011°00'88 9.2
2018-Feb-17 01:06N 53°35' W 010°59'3 9.3
2018-Feb-17 00:46N 53°39' W 010°59'3 9.1
2018-Feb-17 00:28N 53°41' W 010°59'4 9.0
2018-Feb-17 00:00N 53°45' W 010°59'7 8.6
2018-Feb-16 23:14N 53°52' W 010°59'2 8.3
2018-Feb-16 22:58N 53°54' W 010°59'7 7.9
2018-Feb-16 22:08N 54°01' W 010°59'20 7.6
2018-Feb-16 19:30N 54°20' W 010°50'5 8.0
2018-Feb-16 18:49N 54°25' W 010°47'  
Track history (hours):
 
Tides and Currents Weather Stations Pressure Air Temp Water Temp Dewpoint Dewpoint Depression Visibility Wind Speed Wind Dir Waves Ship Positions

Navios Pollux

Last reported at 2018-Feb-20 19:29 UTC. Time now 2018-Feb-20 19:49 UTC.
Position N 38°59' W 010°20'.

Length 292 m; draft 17.6 m.

Type: Cargo ship. MMSI: 370290000.

Date/timePositionNaut miles runAvg speedWind from/ knotsBaromVisibWave heightAir tempDewpointWater temp
2018-Feb-20 19:29N 38°59' W 010°20'5 9.8
2018-Feb-20 19:00N 39°04' W 010°20'5 9.8
2018-Feb-20 18:30N 39°09' W 010°20'5 9.6
2018-Feb-20 17:59N 39°14' W 010°20'5 9.6
2018-Feb-20 17:30N 39°19' W 010°20'5 9.6
2018-Feb-20 17:00N 39°23' W 010°20'5 9.7
2018-Feb-20 16:30N 39°28' W 010°20'8 9.6
2018-Feb-20 15:39N 39°36' W 010°20'5 9.6
2018-Feb-20 15:09N 39°41' W 010°20'1 9.6
2018-Feb-20 15:00N 39°43' W 010°20'  
2018-Feb-17 10:41N 52°07' W 011°00'88 9.2
2018-Feb-17 01:06N 53°35' W 010°59'3 9.3
2018-Feb-17 00:46N 53°39' W 010°59'3 9.1
2018-Feb-17 00:28N 53°41' W 010°59'4 9.0
2018-Feb-17 00:00N 53°45' W 010°59'7 8.6
2018-Feb-16 23:14N 53°52' W 010°59'2 8.3
2018-Feb-16 22:58N 53°54' W 010°59'7 7.9
2018-Feb-16 22:08N 54°01' W 010°59'20 7.6
2018-Feb-16 19:30N 54°20' W 010°50'5 8.0
2018-Feb-16 18:49N 54°25' W 010°47'  

Dump ship's entire track history